Terminal Aerodrome Forecast
Issued by NWS Sioux Falls, SD

Home | Current Version | Previous Version | Graphics & Text | Print | Product List | Glossary Off
Versions: 1 2 3 4 5 6 7 8 9 10 11 12 13 14 15 16 17

267
FTUS43 KFSD 240520
TAFFSD
TAF
KFSD 240520Z 2406/2506 17010KT P6SM FEW250 WS010/20040KT
     FM241200 18016G24KT P6SM SCT100 BKN150
     FM241800 18019G28KT P6SM SCT040 BKN100
     FM242100 22013G19KT P6SM BKN050
     FM250100 24008KT P6SM BKN050
     FM250400 31009KT P6SM SCT080=

USA.gov is the U.S. government's official web portal to all federal, state and local government web resources and services.